Time;durP1;ratioP1;P1;durP2;ratioP2;P2;SDS_P1;SDS_P2;PMS_P1;PMS_P2;Temp;Humidity;BMP_temperature;BMP_pressure;BME280_temperature;BME280_humidity;BME280_pressure;Samples;Min_cycle;Max_cycle;Signal;HPM_P1;HPM_P2
2022/07/12 00:02:15;;;;;;;0.63;0.60;;;;;;;18.15;85.55;100507.00;5026254;28;20283;-57
2022/07/12 00:04:48;;;;;;;1.90;0.70;;;;;;;18.27;84.54;100499.38;5026414;28;20277;-57
2022/07/12 00:07:18;;;;;;;2.77;0.57;;;;;;;18.43;84.53;100499.53;5025747;28;20312;-57
2022/07/12 00:09:49;;;;;;;0.70;0.70;;;;;;;18.52;83.75;100507.06;5025976;28;20423;-57
2022/07/12 00:12:20;;;;;;;0.60;0.53;;;;;;;18.53;83.35;100506.13;5025300;28;20300;-56
2022/07/12 00:14:51;;;;;;;1.10;0.60;;;;;;;18.67;84.22;100504.63;5024515;28;20328;-58
2022/07/12 00:17:21;;;;;;;0.70;0.70;;;;;;;18.71;83.63;100496.47;5026110;28;20654;-57
2022/07/12 00:19:53;;;;;;;1.93;0.70;;;;;;;18.76;82.90;100501.59;5025561;28;20305;-58
2022/07/12 00:22:28;;;;;;;0.63;0.57;;;;;;;18.77;82.79;100502.44;5024751;28;21209;-57
2022/07/12 00:24:58;;;;;;;0.70;0.70;;;;;;;18.84;82.88;100493.28;5025273;28;20304;-58
2022/07/12 00:27:31;;;;;;;0.70;0.60;;;;;;;18.90;82.26;100493.88;5025096;28;20545;-57
2022/07/12 00:30:01;;;;;;;1.73;0.80;;;;;;;19.05;82.16;100486.13;5024960;28;20356;-57
2022/07/12 00:32:32;;;;;;;0.70;0.70;;;;;;;19.11;81.69;100454.03;5025517;28;20272;-58
2022/07/12 00:35:05;;;;;;;0.90;0.80;;;;;;;19.48;81.53;100484.03;5024364;28;20474;-58
2022/07/12 00:37:36;;;;;;;0.80;0.80;;;;;;;19.65;81.14;100468.13;5024904;28;20496;-57
2022/07/12 00:40:08;;;;;;;3.10;1.13;;;;;;;20.04;81.87;100467.91;5025136;28;20550;-57
2022/07/12 00:42:39;;;;;;;0.87;0.80;;;;;;;20.36;80.23;100473.28;5022951;28;20302;-59
2022/07/12 00:45:11;;;;;;;0.80;0.80;;;;;;;20.36;77.88;100473.28;5025536;28;20356;-60
2022/07/12 00:47:44;;;;;;;3.23;1.00;;;;;;;20.46;77.19;100468.34;5025849;28;20504;-58
2022/07/12 00:50:18;;;;;;;0.90;0.70;;;;;;;20.64;77.41;100467.38;5024969;28;20281;-58
2022/07/12 00:52:49;;;;;;;1.93;1.00;;;;;;;20.99;78.09;100461.91;5024438;28;20825;-58
2022/07/12 00:55:22;;;;;;;1.00;0.90;;;;;;;20.95;76.16;100432.94;5025170;28;20276;-58
2022/07/12 00:57:55;;;;;;;0.80;0.80;;;;;;;21.17;75.05;100454.69;5025430;28;20300;-57
2022/07/12 01:00:28;;;;;;;0.97;0.93;;;;;;;21.25;75.49;100446.25;5025142;28;20360;-59
2022/07/12 01:03:00;;;;;;;1.10;1.00;;;;;;;21.34;74.60;100459.00;5025288;28;20677;-58
2022/07/12 01:05:32;;;;;;;1.47;1.30;;;;;;;21.16;73.92;100463.56;5025191;28;20311;-57
2022/07/12 01:08:03;;;;;;;1.47;1.30;;;;;;;20.97;74.98;100455.81;5024826;28;20617;-57
2022/07/12 01:10:34;;;;;;;3.30;1.20;;;;;;;20.77;75.22;100440.16;5025001;28;20345;-58
2022/07/12 01:13:05;;;;;;;1.70;1.50;;;;;;;21.03;76.54;100457.25;5024991;28;20281;-58
2022/07/12 01:15:36;;;;;;;1.80;1.13;;;;;;;21.22;76.59;100452.63;5024911;28;20306;-58
2022/07/12 01:18:07;;;;;;;2.60;1.70;;;;;;;21.28;75.11;100462.03;5024889;28;20664;-57
2022/07/12 01:20:39;;;;;;;1.83;1.40;;;;;;;21.57;76.22;100451.50;5022844;28;20300;-58
2022/07/12 01:23:12;;;;;;;2.97;1.43;;;;;;;21.98;76.59;100452.53;5025238;28;20385;-58
2022/07/12 01:25:43;;;;;;;5.70;1.57;;;;;;;22.42;76.24;100455.28;5024712;28;20355;-56
2022/07/12 01:28:14;;;;;;;2.20;1.40;;;;;;;22.48;72.94;100454.88;5025251;28;20060;-59
2022/07/12 01:30:44;;;;;;;2.87;1.20;;;;;;;22.54;72.35;100451.81;5025079;28;20330;-60
2022/07/12 01:33:16;;;;;;;3.73;1.17;;;;;;;22.68;73.94;100445.63;5024006;28;20049;-60
2022/07/12 01:35:48;;;;;;;2.57;1.57;;;;;;;22.72;72.34;100448.00;5024116;28;20050;-58
2022/07/12 01:38:21;;;;;;;3.70;1.50;;;;;;;22.34;71.53;100440.63;5024851;28;20340;-59
2022/07/12 01:40:51;;;;;;;2.63;1.30;;;;;;;22.25;72.82;100443.84;5023639;28;20279;-59
2022/07/12 01:43:22;;;;;;;2.63;1.70;;;;;;;22.46;73.83;100435.47;5021790;28;20048;-58
2022/07/12 01:45:53;;;;;;;2.03;1.63;;;;;;;22.77;73.58;100435.22;5024261;28;20065;-59
2022/07/12 01:48:23;;;;;;;5.10;1.50;;;;;;;22.95;70.92;100430.50;5024564;28;20096;-57
2022/07/12 01:50:55;;;;;;;2.03;1.30;;;;;;;23.22;71.53;100430.53;5027150;28;20061;-59
2022/07/12 01:53:28;;;;;;;2.47;1.70;;;;;;;23.55;71.17;100415.88;5026609;28;20058;-59
2022/07/12 01:55:59;;;;;;;5.30;1.70;;;;;;;23.68;71.38;100419.41;5027091;28;20067;-59
2022/07/12 01:58:29;;;;;;;4.30;1.53;;;;;;;24.04;71.09;100417.88;5027062;28;20042;-57
2022/07/12 02:01:00;;;;;;;5.40;1.60;;;;;;;24.06;71.60;100383.91;5026875;28;20125;-58
2022/07/12 02:03:31;;;;;;;5.43;1.87;;;;;;;24.50;71.11;100409.25;5027750;28;20326;-59
2022/07/12 02:06:01;;;;;;;2.23;1.60;;;;;;;24.63;68.58;100405.72;5027897;28;20171;-58
2022/07/12 02:08:33;;;;;;;2.70;1.87;;;;;;;24.53;69.72;100406.38;5028541;28;20053;-57
2022/07/12 02:11:04;;;;;;;2.97;1.87;;;;;;;24.66;69.71;100402.81;5028470;28;20058;-59
2022/07/12 02:13:34;;;;;;;4.00;2.00;;;;;;;24.73;68.70;100398.72;5028291;28;20168;-59
2022/07/12 02:16:06;;;;;;;5.40;2.17;;;;;;;24.80;70.11;100378.59;5028325;28;20060;-59
2022/07/12 02:18:36;;;;;;;2.40;1.90;;;;;;;25.09;69.83;100388.97;5028220;28;20126;-59
2022/07/12 02:21:07;;;;;;;5.73;2.20;;;;;;;25.21;68.79;100392.53;5027698;28;20057;-58
2022/07/12 02:23:39;;;;;;;2.40;1.60;;;;;;;25.35;68.67;100379.81;5027374;28;20116;-59
2022/07/12 02:26:10;;;;;;;4.07;2.20;;;;;;;25.55;69.14;100390.81;5027400;28;20045;-60
2022/07/12 02:28:40;;;;;;;6.50;2.10;;;;;;;25.71;68.42;100386.00;5027375;28;20056;-58
2022/07/12 02:31:11;;;;;;;5.13;1.87;;;;;;;25.94;68.00;100392.25;5027236;28;20215;-58
2022/07/12 02:33:42;;;;;;;2.20;1.40;;;;;;;26.04;67.77;100384.34;5027141;28;20061;-58
2022/07/12 02:36:13;;;;;;;3.73;1.87;;;;;;;26.37;67.24;100387.97;5027197;28;20053;-59
2022/07/12 02:38:45;;;;;;;4.07;2.27;;;;;;;26.45;64.64;100385.53;5027538;28;20080;-59
2022/07/12 02:41:16;;;;;;;3.57;2.67;;;;;;;25.93;63.54;100336.16;5026644;28;20084;-57
2022/07/12 02:43:46;;;;;;;4.40;2.50;;;;;;;25.78;64.79;100376.50;5027209;28;20061;-59
2022/07/12 02:46:17;;;;;;;5.23;2.23;;;;;;;25.81;67.13;100381.63;5026884;28;20053;-57
2022/07/12 02:48:47;;;;;;;3.30;2.37;;;;;;;25.79;65.96;100378.22;5026745;28;20064;-56
2022/07/12 02:51:18;;;;;;;5.40;2.50;;;;;;;25.77;66.40;100364.09;5027246;28;20075;-58
2022/07/12 02:53:50;;;;;;;6.03;2.20;;;;;;;25.97;65.51;100369.75;5026768;28;20229;-59
2022/07/12 02:56:21;;;;;;;11.47;2.27;;;;;;;26.06;65.79;100369.03;5026954;28;20057;-58
2022/07/12 02:58:51;;;;;;;2.83;2.10;;;;;;;26.27;66.90;100344.16;5027104;28;20527;-59
2022/07/12 03:01:22;;;;;;;4.53;2.30;;;;;;;26.44;65.06;100362.41;5026208;28;20077;-58
2022/07/12 03:03:52;;;;;;;5.57;2.60;;;;;;;26.40;65.68;100366.28;5026970;28;20089;-58
2022/07/12 03:06:23;;;;;;;5.50;2.13;;;;;;;26.44;65.47;100373.13;5026637;28;20081;-57
2022/07/12 03:08:55;;;;;;;5.33;2.30;;;;;;;26.06;65.11;100312.78;5026307;28;20180;-58
2022/07/12 03:11:26;;;;;;;7.10;2.73;;;;;;;26.38;65.18;100360.19;5026592;28;20040;-59
2022/07/12 03:13:56;;;;;;;7.47;3.07;;;;;;;26.47;65.20;100362.13;5026597;28;20295;-59
2022/07/12 03:16:27;;;;;;;5.97;2.83;;;;;;;26.56;65.10;100356.06;5026627;28;20034;-57
2022/07/12 03:18:57;;;;;;;4.87;3.10;;;;;;;26.42;64.03;100353.63;5026856;28;20058;-59
2022/07/12 03:21:28;;;;;;;6.77;2.70;;;;;;;26.36;65.89;100348.75;5027070;28;20122;-59
2022/07/12 03:24:00;;;;;;;8.43;4.03;;;;;;;26.42;66.60;100340.22;5026536;28;20223;-58
2022/07/12 03:26:31;;;;;;;6.90;3.17;;;;;;;26.35;65.85;100347.06;5026305;28;20058;-58
2022/07/12 03:29:02;;;;;;;9.93;3.47;;;;;;;26.34;66.50;100340.84;5026207;28;20072;-59
2022/07/12 03:31:33;;;;;;;8.93;4.00;;;;;;;26.24;66.46;100335.41;5025770;28;20061;-58
2022/07/12 03:34:03;;;;;;;7.80;4.13;;;;;;;26.15;64.59;100330.78;5026150;28;20075;-58
2022/07/12 03:36:34;;;;;;;10.70;4.13;;;;;;;26.13;65.19;100331.88;5026369;28;20322;-58
2022/07/12 03:39:06;;;;;;;12.60;4.70;;;;;;;26.29;65.55;100331.50;5025728;28;20329;-59
2022/07/12 03:41:37;;;;;;;9.60;4.37;;;;;;;26.47;66.93;100332.66;5025999;28;20072;-57
2022/07/12 03:44:08;;;;;;;16.40;5.20;;;;;;;26.58;65.97;100332.66;5025160;28;20065;-58
2022/07/12 03:46:38;;;;;;;10.60;4.47;;;;;;;26.76;66.51;100337.47;5025581;28;20124;-59
2022/07/12 03:49:09;;;;;;;11.47;4.93;;;;;;;26.88;66.53;100328.41;5025865;28;20319;-58
2022/07/12 03:51:40;;;;;;;13.23;6.60;;;;;;;26.99;64.36;100323.00;5026085;28;20104;-60
2022/07/12 03:54:12;;;;;;;16.73;5.63;;;;;;;27.04;64.82;100323.47;5025614;28;20054;-60
2022/07/12 03:59:30;;;;;;;14.07;6.67;;;;;;;26.90;64.00;100321.09;5025704;28;20064;-59
2022/07/12 04:02:01;;;;;;;12.13;6.30;;;;;;;26.67;65.79;100315.81;5025962;28;20195;-59
2022/07/12 04:04:32;;;;;;;10.90;6.53;;;;;;;26.75;65.87;100317.00;5025556;28;20121;-59
2022/07/12 04:07:03;;;;;;;13.90;7.17;;;;;;;26.73;64.79;100313.59;5024639;28;20046;-59
2022/07/12 04:09:35;;;;;;;12.67;6.63;;;;;;;26.84;64.13;100311.75;5025716;28;20057;-59
2022/07/12 04:12:07;;;;;;;11.13;7.30;;;;;;;26.90;64.00;100313.06;5025078;28;20052;-59
2022/07/12 04:14:37;;;;;;;11.43;6.60;;;;;;;26.82;64.28;100319.06;5025980;28;20052;-60
2022/07/12 04:17:08;;;;;;;18.40;6.80;;;;;;;26.88;64.52;100315.00;5025826;28;20064;-59
2022/07/12 04:19:39;;;;;;;13.60;5.10;;;;;;;26.83;64.72;100306.50;5026253;28;20077;-58
2022/07/12 04:22:09;;;;;;;12.77;6.27;;;;;;;27.01;65.21;100307.66;5025733;28;20060;-58
2022/07/12 04:24:42;;;;;;;13.43;5.47;;;;;;;27.29;65.09;100316.06;5025483;28;20057;-58
2022/07/12 04:27:12;;;;;;;15.47;6.30;;;;;;;27.57;65.38;100297.56;5025755;28;20071;-59
2022/07/12 04:29:43;;;;;;;12.13;7.13;;;;;;;27.48;63.51;100316.16;5025588;28;20088;-59
2022/07/12 04:32:13;;;;;;;8.07;5.43;;;;;;;27.09;64.27;100315.88;5025323;28;20061;-57
2022/07/12 04:34:44;;;;;;;5.57;3.03;;;;;;;26.56;66.06;100307.84;5024974;28;20129;-58
2022/07/12 04:37:15;;;;;;;8.50;2.83;;;;;;;25.89;67.67;100319.50;5024349;28;20221;-58
2022/07/12 04:39:47;;;;;;;12.97;3.37;;;;;;;25.09;68.68;100282.00;5023588;28;20050;-58
2022/07/12 04:42:17;;;;;;;7.10;3.20;;;;;;;24.95;69.52;100313.31;5025258;28;20053;-58
2022/07/12 04:44:48;;;;;;;9.80;3.03;;;;;;;24.62;70.55;100278.44;5025536;28;20049;-58
2022/07/12 04:47:18;;;;;;;7.63;2.60;;;;;;;24.88;70.16;100322.75;5025436;28;20049;-60
2022/07/12 04:49:49;;;;;;;13.17;3.20;;;;;;;24.88;70.09;100296.03;5025321;28;20091;-60
2022/07/12 04:52:20;;;;;;;6.80;2.60;;;;;;;25.17;67.49;100322.41;5025282;28;20278;-59
2022/07/12 04:54:52;;;;;;;7.10;2.50;;;;;;;24.93;66.96;100320.59;5022602;28;20105;-59
2022/07/12 04:57:23;;;;;;;7.20;2.23;;;;;;;24.50;68.94;100307.75;5024911;28;20062;-61
2022/07/12 04:59:53;;;;;;;7.63;2.47;;;;;;;24.18;69.24;100341.28;5023810;28;20117;-61
2022/07/12 05:02:24;;;;;;;6.80;2.53;;;;;;;23.93;70.11;100340.34;5024933;28;20290;-61
2022/07/12 05:04:54;;;;;;;13.07;3.03;;;;;;;23.65;69.14;100320.94;5024031;28;20062;-60
2022/07/12 05:07:25;;;;;;;5.80;2.27;;;;;;;23.47;70.12;100343.56;5024085;28;20317;-60
2022/07/12 05:09:57;;;;;;;4.50;2.20;;;;;;;23.50;70.39;100354.00;5025430;28;20116;-59
2022/07/12 05:12:28;;;;;;;7.30;2.60;;;;;;;23.29;71.03;100350.13;5019423;28;20267;-61
2022/07/12 05:14:58;;;;;;;2.97;2.13;;;;;;;23.17;70.62;100352.69;5017457;28;20068;-58
2022/07/12 05:17:29;;;;;;;7.43;2.10;;;;;;;22.92;71.23;100363.25;5018040;28;20049;-60
2022/07/12 05:19:59;;;;;;;13.53;2.97;;;;;;;22.74;72.52;100366.19;5011649;28;20046;-60
2022/07/12 05:22:30;;;;;;;3.87;2.40;;;;;;;22.61;73.34;100367.91;5012323;28;20057;-61
2022/07/12 05:25:02;;;;;;;6.97;2.47;;;;;;;22.64;73.38;100365.06;5003100;28;20062;-60
2022/07/12 05:27:33;;;;;;;12.37;2.80;;;;;;;22.24;71.85;100330.38;5003343;28;20058;-59
2022/07/12 05:30:04;;;;;;;4.30;2.43;;;;;;;22.21;72.13;100367.78;5003226;28;20050;-60
2022/07/12 05:32:34;;;;;;;6.70;2.70;;;;;;;22.07;73.39;100365.16;5003033;28;20058;-60
2022/07/12 05:35:05;;;;;;;6.37;2.53;;;;;;;22.01;74.29;100353.06;5004425;28;20080;-60
2022/07/12 05:37:36;;;;;;;11.17;2.77;;;;;;;22.23;74.47;100373.88;5017246;28;20058;-60
2022/07/12 05:40:09;;;;;;;6.00;2.57;;;;;;;22.44;74.03;100368.13;5022766;28;20062;-60
2022/07/12 05:42:40;;;;;;;6.63;2.60;;;;;;;22.46;73.03;100376.88;5022852;28;20054;-60
2022/07/12 05:45:12;;;;;;;6.20;2.10;;;;;;;22.44;73.13;100369.03;5022807;28;20062;-60
2022/07/12 05:47:42;;;;;;;7.33;2.53;;;;;;;22.64;74.03;100367.72;5022377;28;20050;-60
2022/07/12 05:50:13;;;;;;;4.13;2.70;;;;;;;22.77;71.87;100367.78;5022682;28;20299;-60
2022/07/12 05:55:32;;;;;;;5.47;2.43;;;;;;;22.75;71.66;100373.19;5022660;28;20050;-60
2022/07/12 05:58:03;;;;;;;8.77;2.93;;;;;;;22.57;71.48;100379.72;5022745;28;20287;-59
2022/07/12 06:00:34;;;;;;;4.77;2.40;;;;;;;22.07;72.57;100359.81;5022298;28;20049;-58
2022/07/12 06:03:05;;;;;;;5.50;2.60;;;;;;;21.93;73.40;100384.59;5022025;28;20057;-59
2022/07/12 06:05:36;;;;;;;6.63;3.43;;;;;;;21.89;74.57;100378.63;5022445;28;20421;-60
2022/07/12 06:08:07;;;;;;;7.20;2.77;;;;;;;21.79;74.09;100377.50;5022505;28;20296;-59
2022/07/12 06:10:39;;;;;;;6.50;3.10;;;;;;;21.65;74.89;100388.13;5020153;28;20064;-59
2022/07/12 06:13:10;;;;;;;7.20;2.93;;;;;;;21.48;74.46;100379.34;5026789;28;20230;-58
2022/07/12 06:15:40;;;;;;;14.90;4.00;;;;;;;21.28;75.65;100383.16;5026402;28;20365;-60
2022/07/12 06:18:11;;;;;;;11.00;2.70;;;;;;;21.23;76.34;100387.88;5026457;28;20280;-59
2022/07/12 06:20:42;;;;;;;7.43;2.90;;;;;;;21.15;76.77;100397.25;5026985;28;20339;-59
2022/07/12 06:23:12;;;;;;;15.10;3.60;;;;;;;21.05;77.00;100392.47;5025472;28;20489;-60
2022/07/12 06:25:45;;;;;;;5.83;2.67;;;;;;;20.98;77.73;100395.56;5026103;28;20285;-60
2022/07/12 06:28:24;;;;;;;10.63;2.87;;;;;;;20.89;77.25;100396.94;5026471;28;20483;-59
2022/07/12 06:30:54;;;;;;;10.00;2.63;;;;;;;20.70;76.86;100412.22;5025975;28;20391;-59
2022/07/12 06:33:25;;;;;;;7.07;3.03;;;;;;;20.40;77.91;100399.69;5026233;28;20284;-58
2022/07/12 06:35:56;;;;;;;15.27;3.30;;;;;;;20.34;78.08;100413.25;5025241;28;20565;-59
2022/07/12 06:38:26;;;;;;;10.00;3.50;;;;;;;20.22;77.96;100401.53;5027000;28;20281;-59
2022/07/12 06:40:58;;;;;;;12.40;3.57;;;;;;;20.02;78.83;100389.34;5022538;28;20375;-59
2022/07/12 06:43:29;;;;;;;13.10;3.60;;;;;;;20.11;78.79;100412.72;5025981;28;20288;-59
2022/07/12 06:46:00;;;;;;;5.97;3.53;;;;;;;20.07;79.08;100420.91;5026468;28;20348;-58
2022/07/12 06:48:30;;;;;;;5.60;3.13;;;;;;;19.98;79.26;100414.31;5027512;28;20557;-59
2022/07/12 06:51:01;;;;;;;11.77;3.40;;;;;;;19.79;79.65;100420.59;5027325;28;20335;-59
2022/07/12 06:53:32;;;;;;;4.87;3.27;;;;;;;19.68;80.17;100416.78;5024169;28;20299;-61
2022/07/12 06:56:04;;;;;;;13.20;3.80;;;;;;;19.54;80.61;100414.78;5027609;28;20355;-59
2022/07/12 06:58:35;;;;;;;10.60;3.73;;;;;;;19.53;81.22;100415.75;5026967;28;20300;-59
2022/07/12 07:01:06;;;;;;;8.83;3.90;;;;;;;19.32;81.12;100384.09;5027031;28;20276;-59
2022/07/12 07:03:36;;;;;;;7.87;3.90;;;;;;;19.45;81.25;100420.59;5027351;28;20318;-59
2022/07/12 07:06:07;;;;;;;10.83;3.73;;;;;;;19.47;81.88;100429.28;5025673;28;20500;-59
2022/07/12 07:08:38;;;;;;;14.70;4.30;;;;;;;19.44;81.52;100434.75;5026351;28;20315;-59
2022/07/12 07:11:10;;;;;;;12.30;4.27;;;;;;;19.28;82.21;100430.22;5026067;28;20359;-59
2022/07/12 07:13:41;;;;;;;7.70;3.70;;;;;;;19.17;82.46;100432.56;5026528;28;20291;-60
2022/07/12 07:16:23;;;;;;;10.57;4.25;;;;;;;19.12;82.55;100424.84;5026300;28;20288;-59
2022/07/12 07:18:54;;;;;;;6.07;4.00;;;;;;;18.98;82.62;100399.97;5026550;28;20266;-59
2022/07/12 07:21:25;;;;;;;7.13;4.27;;;;;;;19.38;82.67;100434.13;5026386;28;20351;-59
2022/07/12 07:23:56;;;;;;;9.97;4.77;;;;;;;19.45;82.28;100431.19;5026630;28;20301;-60
2022/07/12 07:26:28;;;;;;;7.33;4.63;;;;;;;19.38;81.63;100431.47;5026834;28;20584;-60
2022/07/12 07:31:46;;;;;;;9.40;4.30;;;;;;;19.01;82.34;100440.38;5026676;28;20346;-59
2022/07/12 07:34:16;;;;;;;10.93;4.93;;;;;;;18.72;82.68;100441.72;5026071;28;20302;-59
2022/07/12 07:36:47;;;;;;;12.70;3.97;;;;;;;18.46;83.96;100441.19;5026594;28;20659;-59
2022/07/12 07:39:18;;;;;;;11.63;5.20;;;;;;;18.13;85.44;100421.56;5026134;28;20281;-60
2022/07/12 07:41:51;;;;;;;9.30;5.33;;;;;;;18.19;85.89;100453.00;5026031;28;20569;-59
2022/07/12 07:44:22;;;;;;;7.47;5.43;;;;;;;18.09;86.20;100442.84;5026238;28;20303;-60
2022/07/12 07:47:01;;;;;;;;;;;;;;;17.95;86.82;100458.47;5026667;28;20309;-59
2022/07/12 07:49:32;;;;;;;8.27;5.00;;;;;;;17.82;87.33;100454.63;5026532;28;19921;-58
2022/07/12 07:52:02;;;;;;;13.17;5.60;;;;;;;17.71;88.09;100446.28;5025832;28;20334;-59
2022/07/12 07:54:33;;;;;;;9.27;5.90;;;;;;;17.66;88.32;100449.13;5025946;28;20460;-59
2022/07/12 07:57:06;;;;;;;8.47;5.20;;;;;;;17.52;88.81;100447.06;5026402;28;20296;-59
2022/07/12 07:59:38;;;;;;;9.10;6.43;;;;;;;17.52;89.58;100462.06;5026469;28;20546;-59
2022/07/12 08:02:12;;;;;;;10.67;6.10;;;;;;;17.57;89.45;100455.69;5025995;28;20323;-59
2022/07/12 08:04:43;;;;;;;10.43;6.07;;;;;;;17.58;89.50;100456.53;5025804;28;20340;-58
2022/07/12 08:07:13;;;;;;;9.90;6.67;;;;;;;17.43;89.49;100458.03;5026074;28;20284;-59
2022/07/12 08:10:04;;;;;;;13.97;6.20;;;;;;;17.40;90.09;100458.16;5026152;28;20284;-59
2022/07/12 08:12:36;;;;;;;10.80;6.87;;;;;;;17.34;90.16;100463.69;5024566;28;20309;-58
2022/07/12 08:15:07;;;;;;;15.13;7.43;;;;;;;17.24;90.83;100453.50;5024858;28;20585;-58
2022/07/12 08:17:38;;;;;;;15.57;7.20;;;;;;;17.40;91.11;100463.44;5024830;28;20339;-58
2022/07/12 08:20:16;;;;;;;18.33;7.00;;;;;;;17.40;91.12;100468.72;5025191;28;20272;-58
2022/07/12 08:23:07;;;;;;;15.07;7.70;;;;;;;17.42;90.89;100472.13;5025746;28;20277;-59
2022/07/12 08:25:37;;;;;;;11.40;7.17;;;;;;;17.36;90.63;100472.41;5025029;28;21107;-59
2022/07/12 08:28:09;;;;;;;15.20;7.73;;;;;;;17.21;91.18;100474.75;5025823;28;20280;-59
2022/07/12 08:30:41;;;;;;;19.77;7.47;;;;;;;17.14;91.29;100468.00;5025103;28;20288;-58
2022/07/12 08:33:16;;;;;;;19.60;7.67;;;;;;;17.17;91.48;100467.88;5024480;28;20339;-59
2022/07/12 08:35:47;;;;;;;23.77;8.63;;;;;;;17.16;91.58;100460.88;5025138;28;20273;-58
2022/07/12 08:38:17;;;;;;;12.47;6.83;;;;;;;17.22;91.64;100471.19;5025421;28;20568;-59
2022/07/12 08:40:48;;;;;;;10.30;6.93;;;;;;;17.12;91.33;100469.81;5025343;28;20295;-58
2022/07/12 08:43:20;;;;;;;13.10;7.07;;;;;;;16.88;92.44;100476.97;5025267;28;20340;-58
2022/07/12 08:46:03;;;;;;;13.65;7.50;;;;;;;16.78;93.07;100487.00;5025402;28;20454;-59
2022/07/12 08:48:34;;;;;;;16.00;8.00;;;;;;;16.73;93.34;100494.22;5025406;28;20091;-58
2022/07/12 08:51:07;;;;;;;12.73;8.10;;;;;;;16.69;93.86;100487.31;5023891;28;20550;-58
2022/07/12 08:53:38;;;;;;;11.70;7.93;;;;;;;16.67;94.07;100491.78;5025044;28;20309;-59
2022/07/12 08:56:29;;;;;;;12.23;8.43;;;;;;;16.71;94.25;100498.69;5025340;28;20355;-58
2022/07/12 08:59:14;;;;;;;11.93;8.20;;;;;;;16.69;94.22;100503.16;5025285;28;20279;-59
2022/07/12 09:01:47;;;;;;;15.67;9.07;;;;;;;16.69;94.75;100497.88;5022857;28;20386;-58
2022/07/12 09:04:19;;;;;;;15.93;8.87;;;;;;;16.68;94.38;100501.44;5025329;28;20293;-58
2022/07/12 09:06:50;;;;;;;18.77;8.17;;;;;;;16.65;94.00;100506.84;5024923;28;20407;-58
2022/07/12 09:09:29;;;;;;;17.20;9.47;;;;;;;16.58;94.28;100510.63;5024796;28;20288;-59
2022/07/12 09:12:00;;;;;;;26.03;9.30;;;;;;;16.56;94.51;100520.38;5024547;28;20300;-58
2022/07/12 09:14:33;;;;;;;13.53;7.90;;;;;;;16.51;94.41;100517.88;5024403;28;20318;-58
2022/07/12 09:17:09;;;;;;;11.87;8.50;;;;;;;16.44;94.65;100521.66;5025255;28;20512;-58
2022/07/12 09:19:40;;;;;;;14.53;8.17;;;;;;;16.44;94.94;100526.94;5022647;28;20280;-58
2022/07/12 09:22:17;;;;;;;16.70;9.10;;;;;;;16.37;95.36;100518.41;5025077;28;20343;-58
2022/07/12 09:24:48;;;;;;;13.90;7.97;;;;;;;16.14;95.37;100484.09;5021713;28;20303;-58
2022/07/12 09:27:26;;;;;;;19.60;8.83;;;;;;;16.31;95.74;100517.75;5021671;28;20368;-58
2022/07/12 09:29:58;;;;;;;15.37;9.03;;;;;;;16.29;96.10;100525.72;5024974;28;20335;-58
2022/07/12 09:38:10;;;;;;;14.20;8.17;;;;;;;16.21;96.47;100516.38;5024782;28;20344;-60
2022/07/12 09:40:42;;;;;;;13.37;8.27;;;;;;;16.21;96.70;100519.88;5024166;28;20280;-58
2022/07/12 09:43:14;;;;;;;13.00;8.47;;;;;;;16.20;96.84;100523.44;5024743;28;20277;-59
2022/07/12 09:45:48;;;;;;;14.90;8.80;;;;;;;16.20;96.84;100520.78;5024844;28;20387;-58
2022/07/12 09:48:20;;;;;;;22.83;9.50;;;;;;;16.22;96.92;100526.00;5024486;28;20280;-58
2022/07/12 09:50:52;;;;;;;14.30;8.70;;;;;;;16.01;96.87;100472.25;5024383;28;20281;-58
2022/07/12 09:53:29;;;;;;;16.57;9.37;;;;;;;16.03;97.08;100486.25;5024424;28;20304;-59
2022/07/12 09:56:00;;;;;;;18.27;9.33;;;;;;;16.29;96.97;100520.44;5023712;28;20281;-58
2022/07/12 09:58:36;;;;;;;16.07;10.27;;;;;;;16.29;96.88;100527.50;5023355;28;20352;-58
2022/07/12 10:01:09;;;;;;;16.13;10.10;;;;;;;16.24;97.04;100517.09;5023335;28;20450;-58
2022/07/12 10:03:46;;;;;;;18.00;9.60;;;;;;;16.26;97.27;100520.56;5024242;28;20488;-59
2022/07/12 10:06:25;;;;;;;17.87;9.93;;;;;;;16.12;97.13;100507.84;5024218;28;20129;-58
2022/07/12 10:09:04;;;;;;;21.93;10.53;;;;;;;16.13;97.73;100499.03;5024966;28;20287;-59
2022/07/12 10:11:35;;;;;;;18.50;10.20;;;;;;;16.15;97.49;100506.91;5027142;28;20295;-59
2022/07/12 10:14:26;;;;;;;19.00;10.13;;;;;;;16.08;97.96;100500.13;5026511;28;20308;-60
2022/07/12 10:16:59;;;;;;;16.33;10.80;;;;;;;16.14;97.99;100505.16;5026085;28;20351;-58
2022/07/12 10:19:32;;;;;;;18.93;11.03;;;;;;;16.10;97.92;100491.25;5027168;28;20597;-60
2022/07/12 10:22:04;;;;;;;21.10;10.70;;;;;;;15.75;98.03;100455.59;5026850;28;20355;-59
2022/07/12 10:24:53;;;;;;;20.83;10.53;;;;;;;16.01;98.03;100503.91;5026270;28;20347;-59
2022/07/12 10:27:37;;;;;;;24.57;11.80;;;;;;;15.87;98.23;100476.22;5027720;28;20775;-59
2022/07/12 10:30:22;;;;;;;19.43;10.50;;;;;;;16.02;98.53;100502.97;5027491;28;20400;-58
2022/07/12 10:32:57;;;;;;;18.97;11.23;;;;;;;15.63;98.57;100434.91;5027327;28;20322;-59
2022/07/12 10:35:29;;;;;;;23.80;10.70;;;;;;;16.01;98.79;100501.25;5027769;28;20293;-59
2022/07/12 10:38:25;;;;;;;20.37;10.83;;;;;;;15.98;98.60;100499.59;5027490;28;20281;-58
2022/07/12 10:40:56;;;;;;;17.00;10.60;;;;;;;15.92;98.93;100500.63;5027667;28;20302;-58
2022/07/12 10:46:20;;;;;;;16.83;9.63;;;;;;;15.71;99.03;100470.63;5026836;28;20280;-59
2022/07/12 10:48:53;;;;;;;17.10;9.37;;;;;;;15.42;98.91;100425.97;5026971;28;20573;-58
2022/07/12 10:51:24;;;;;;;12.57;8.33;;;;;;;15.90;99.11;100507.78;5026706;28;20288;-58
2022/07/12 10:53:54;;;;;;;14.87;8.63;;;;;;;15.88;99.08;100514.84;5027046;28;20312;-58
2022/07/12 10:56:27;;;;;;;17.80;9.00;;;;;;;15.92;99.21;100516.44;5026841;28;20288;-58
2022/07/12 10:59:00;;;;;;;17.03;9.50;;;;;;;15.92;98.80;100515.59;5026846;28;20296;-59
2022/07/12 11:01:32;;;;;;;19.97;9.30;;;;;;;15.65;99.20;100469.94;5026569;28;20285;-59
2022/07/12 11:04:08;;;;;;;18.10;9.17;;;;;;;15.95;99.11;100523.44;5026707;28;20351;-59
2022/07/12 11:06:40;;;;;;;17.70;10.53;;;;;;;15.96;99.02;100517.22;5026572;28;20482;-58
2022/07/12 11:09:12;;;;;;;14.07;9.67;;;;;;;15.59;98.91;100464.91;5026216;28;20272;-59
2022/07/12 11:11:45;;;;;;;17.47;9.47;;;;;;;15.88;98.86;100514.84;5026160;28;20313;-58
2022/07/12 11:14:23;;;;;;;17.40;9.63;;;;;;;15.87;99.10;100523.66;5025729;28;20352;-59
2022/07/12 11:16:56;;;;;;;17.73;9.33;;;;;;;15.87;99.37;100518.38;5025853;28;20280;-58
2022/07/12 11:19:30;;;;;;;18.67;9.87;;;;;;;15.82;99.16;100507.16;5026034;28;20560;-58
2022/07/12 11:22:00;;;;;;;16.77;9.67;;;;;;;15.82;99.40;100512.41;5023105;28;20453;-58
2022/07/12 11:24:32;;;;;;;16.83;10.10;;;;;;;15.81;99.81;100513.34;5026245;28;20291;-58
2022/07/12 11:27:03;;;;;;;22.20;10.23;;;;;;;15.90;99.82;100518.31;5025121;28;20277;-58
2022/07/12 11:29:34;;;;;;;17.33;9.97;;;;;;;15.92;99.68;100523.50;5025769;28;20285;-59
2022/07/12 11:32:07;;;;;;;18.13;10.67;;;;;;;15.76;99.76;100493.34;5024968;28;20287;-58
2022/07/12 11:34:42;;;;;;;23.67;10.13;;;;;;;15.92;99.30;100511.19;5024853;28;20311;-58
2022/07/12 11:37:13;;;;;;;17.20;10.60;;;;;;;15.95;99.19;100510.25;5026235;28;20295;-58
2022/07/12 11:39:44;;;;;;;15.03;9.97;;;;;;;15.91;98.90;100520.00;5025167;28;20596;-58
2022/07/12 11:42:16;;;;;;;19.07;10.00;;;;;;;15.89;99.08;100527.09;5025795;28;20768;-58
2022/07/12 11:44:47;;;;;;;15.70;9.53;;;;;;;15.89;99.24;100516.56;5025762;28;20395;-58
2022/07/12 11:47:19;;;;;;;14.70;9.17;;;;;;;15.92;99.11;100516.44;5025622;28;20297;-58
2022/07/12 11:49:53;;;;;;;16.37;9.37;;;;;;;15.89;98.98;100523.63;5025012;28;20326;-58
2022/07/12 11:52:25;;;;;;;16.20;9.47;;;;;;;15.88;98.90;100517.50;5025566;28;20366;-58
2022/07/12 11:54:56;;;;;;;16.80;9.90;;;;;;;15.85;98.79;100512.34;5023848;28;20459;-58
2022/07/12 11:57:27;;;;;;;17.67;9.23;;;;;;;15.81;98.68;100513.34;5025626;28;20288;-59
2022/07/12 11:59:57;;;;;;;14.83;9.13;;;;;;;15.81;98.66;100529.16;5024140;28;20496;-58
2022/07/12 12:02:31;;;;;;;19.60;9.83;;;;;;;15.78;98.88;100529.25;5023884;28;20301;-58